createdAt,value
2023-04-29T00:02:33.913Z,98313.69
2023-04-29T00:05:19.725Z,98315.69
2023-04-29T00:08:05.936Z,98310.13
2023-04-29T00:10:51.451Z,98315.69
2023-04-29T00:13:36.898Z,98314.09
2023-04-29T00:16:22.171Z,98308.56
2023-04-29T00:19:07.480Z,98314.09
2023-04-29T00:21:54.691Z,98311.34
2023-04-29T00:24:40.366Z,98300.66
2023-04-29T00:27:25.549Z,98298.69
2023-04-29T00:30:15.726Z,98295.91
2023-04-29T00:33:01.151Z,98292.78
2023-04-29T00:35:47.075Z,98288.78
2023-04-29T00:38:32.751Z,98292.78
2023-04-29T00:41:17.910Z,98292.78
2023-04-29T00:44:03.352Z,98288.00
2023-04-29T00:46:48.736Z,98282.47
2023-04-29T00:49:35.842Z,98288.78
2023-04-29T00:52:23.036Z,98288.00
2023-04-29T00:55:09.120Z,98286.00
2023-04-29T00:57:54.850Z,98283.22
2023-04-29T01:00:41.772Z,98281.22
2023-04-29T01:03:29.116Z,98277.69
2023-04-29T01:06:21.567Z,98273.69
2023-04-29T01:09:47.279Z,98274.91
2023-04-29T01:12:37.110Z,98276.91
2023-04-29T01:16:01.156Z,98275.34
2023-04-29T01:18:54.154Z,98282.47
2023-04-29T01:21:50.909Z,98286.00
2023-04-29T01:24:36.545Z,98294.34
2023-04-29T01:27:38.451Z,98306.69
2023-04-29T01:30:47.691Z,98302.31
2023-04-29T01:33:40.428Z,98298.34
2023-04-29T01:37:03.118Z,98299.13
2023-04-29T01:40:06.653Z,98302.66
2023-04-29T01:43:09.574Z,98304.66
2023-04-29T01:45:57.925Z,98309.78
2023-04-29T01:48:43.565Z,98312.56
2023-04-29T01:51:29.803Z,98311.75
2023-04-29T01:54:15.939Z,98317.31
2023-04-29T01:57:03.170Z,98323.66
2023-04-29T01:59:57.363Z,98337.09
2023-04-29T02:03:09.633Z,98341.88
2023-04-29T02:06:01.366Z,98347.00
2023-04-29T02:08:49.081Z,98347.41
2023-04-29T02:11:35.790Z,98349.00
2023-04-29T02:14:21.233Z,98341.88
2023-04-29T02:17:06.692Z,98342.63
2023-04-29T02:19:55.097Z,98336.31
2023-04-29T02:22:41.062Z,98330.75
2023-04-29T02:25:26.340Z,98311.66
2023-04-29T02:28:12.150Z,98306.13
2023-04-29T02:30:59.142Z,98303.00
2023-04-29T02:33:44.327Z,98303.34
2023-04-29T02:36:29.851Z,98310.13
2023-04-29T02:39:15.230Z,98319.22
2023-04-29T02:42:00.439Z,98309.31
2023-04-29T02:44:45.763Z,98299.88
2023-04-29T02:47:30.942Z,98312.56
2023-04-29T02:50:16.373Z,98305.44
2023-04-29T02:53:02.279Z,98310.22
2023-04-29T02:55:48.487Z,98308.22
2023-04-29T02:58:34.133Z,98310.22
2023-04-29T03:01:19.465Z,98309.00
2023-04-29T03:04:05.708Z,98303.91
2023-04-29T03:06:51.578Z,98299.88
2023-04-29T03:09:36.928Z,98295.56
2023-04-29T03:12:22.762Z,98295.56
2023-04-29T03:15:10.549Z,98300.31
2023-04-29T03:17:56.345Z,98303.91
2023-04-29T03:20:42.180Z,98299.56
2023-04-29T03:23:28.081Z,98302.31
2023-04-29T03:26:13.957Z,98296.44
2023-04-29T03:28:59.563Z,98306.34
2023-04-29T03:31:46.339Z,98303.91
2023-04-29T03:34:32.443Z,98296.69
2023-04-29T03:37:39.420Z,98299.78
2023-04-29T03:40:42.965Z,98299.31
2023-04-29T03:43:28.407Z,98297.69
2023-04-29T03:46:13.778Z,98299.56
2023-04-29T03:48:59.400Z,98296.34
2023-04-29T03:51:47.669Z,98291.44
2023-04-29T03:54:34.979Z,98296.91
2023-04-29T03:57:20.897Z,98300.78
2023-04-29T04:00:07.911Z,98288.81
2023-04-29T04:03:00.340Z,98291.44
2023-04-29T04:05:47.136Z,98293.34
2023-04-29T04:08:34.560Z,98302.00
2023-04-29T04:11:27.381Z,98301.91
2023-04-29T04:14:19.056Z,98302.22
2023-04-29T04:17:05.462Z,98296.22
2023-04-29T04:19:51.736Z,98294.56
2023-04-29T04:22:38.255Z,98304.00
2023-04-29T04:25:33.994Z,98301.13
2023-04-29T04:28:35.154Z,98302.22
2023-04-29T04:31:25.907Z,98308.09
2023-04-29T04:34:12.063Z,98306.78
2023-04-29T04:36:57.584Z,98312.66
2023-04-29T04:39:43.006Z,98309.78
2023-04-29T04:42:31.642Z,98313.66
2023-04-29T04:45:18.992Z,98304.09
2023-04-29T04:48:08.810Z,98313.56
2023-04-29T04:50:57.871Z,98311.53
2023-04-29T04:53:44.727Z,98307.84
2023-04-29T04:56:41.625Z,98312.63
2023-04-29T04:59:27.579Z,98314.97
2023-04-29T05:02:12.982Z,98326.44
2023-04-29T05:04:59.270Z,98325.19
2023-04-29T05:07:48.272Z,98317.19
2023-04-29T05:10:37.614Z,98321.88
2023-04-29T05:13:25.847Z,98314.75
2023-04-29T05:16:12.880Z,98319.41
2023-04-29T05:19:04.846Z,98309.84
2023-04-29T05:21:55.518Z,98319.28
2023-04-29T05:24:42.182Z,98325.63
2023-04-29T05:27:27.385Z,98330.41
2023-04-29T05:30:15.298Z,98336.28
2023-04-29T05:33:01.835Z,98338.63
2023-04-29T05:35:48.054Z,98331.84
2023-04-29T05:38:33.454Z,98329.38
2023-04-29T05:41:28.603Z,98336.63
2023-04-29T05:44:14.685Z,98344.53
2023-04-29T05:47:00.595Z,98338.97
2023-04-29T05:49:46.789Z,98347.31
2023-04-29T05:52:32.599Z,98343.72
2023-04-29T05:55:17.987Z,98351.28
2023-04-29T05:58:03.529Z,98344.19
2023-04-29T06:00:49.717Z,98346.97
2023-04-29T06:03:40.249Z,98347.75
2023-04-29T06:06:45.938Z,98359.63
2023-04-29T06:09:36.914Z,98359.63
2023-04-29T06:12:22.398Z,98356.09
2023-04-29T06:15:08.054Z,98357.75
2023-04-29T06:17:53.629Z,98370.88
2023-04-29T06:20:40.967Z,98364.53
2023-04-29T06:23:26.591Z,98358.19
2023-04-29T06:26:13.365Z,98371.34
2023-04-29T06:28:59.122Z,98366.97
2023-04-29T06:31:45.084Z,98379.78
2023-04-29T06:34:31.041Z,98371.91
2023-04-29T06:37:38.098Z,98380.25
2023-04-29T06:40:47.624Z,98379.56
2023-04-29T06:43:33.331Z,98381.88
2023-04-29T06:46:30.976Z,98380.69
2023-04-29T06:49:22.427Z,98383.78
2023-04-29T06:52:08.129Z,98383.34
2023-04-29T06:54:53.520Z,98388.44
2023-04-29T06:57:39.027Z,98385.22
2023-04-29T07:00:24.827Z,98392.22
2023-04-29T07:03:13.729Z,98389.44
2023-04-29T07:05:59.101Z,98388.22
2023-04-29T07:08:45.036Z,98396.13
2023-04-29T07:11:31.473Z,98396.13
2023-04-29T07:14:16.706Z,98406.31
2023-04-29T07:17:02.418Z,98396.00
2023-04-29T07:19:48.655Z,98398.31
2023-04-29T07:22:34.151Z,98409.78
2023-04-29T07:25:19.793Z,98404.53
2023-04-29T07:28:06.514Z,98397.44
2023-04-29T07:30:52.823Z,98400.22
2023-04-29T07:33:38.845Z,98408.09
2023-04-29T07:36:24.076Z,98413.22
2023-04-29T07:39:09.451Z,98417.56
2023-04-29T07:41:55.996Z,98420.34
2023-04-29T07:44:41.699Z,98421.91
2023-04-29T07:47:27.255Z,98423.44
2023-04-29T07:50:13.609Z,98423.44
2023-04-29T07:53:00.618Z,98428.56
2023-04-29T07:55:47.235Z,98419.44
2023-04-29T07:58:33.097Z,98434.56
2023-04-29T08:01:19.114Z,98438.13
2023-04-29T08:04:05.427Z,98440.13
2023-04-29T08:06:55.444Z,98442.59
2023-04-29T08:09:40.655Z,98439.00
2023-04-29T08:12:28.497Z,98438.25
2023-04-29T08:15:13.998Z,98446.91
2023-04-29T08:17:59.732Z,98444.13
2023-04-29T08:20:48.301Z,98454.03
2023-04-29T08:23:34.188Z,98452.81
2023-04-29T08:26:22.589Z,98452.81
2023-04-29T08:29:09.435Z,98454.69
2023-04-29T08:31:55.703Z,98459.38
2023-04-29T08:34:41.973Z,98460.16
2023-04-29T08:37:27.830Z,98469.59
2023-04-29T08:40:13.921Z,98462.50
2023-04-29T08:43:00.298Z,98470.84
2023-04-29T08:45:48.659Z,98476.41
2023-04-29T08:48:37.331Z,98471.16
2023-04-29T08:51:23.039Z,98471.47
2023-04-29T08:54:08.558Z,98474.59
2023-04-29T08:56:55.720Z,98468.59
2023-04-29T08:59:41.679Z,98479.72
2023-04-29T09:02:28.102Z,98478.94
2023-04-29T09:05:14.033Z,98478.94
2023-04-29T09:08:04.276Z,98484.84
2023-04-29T09:10:53.777Z,98491.28
2023-04-29T09:13:39.640Z,98494.53
2023-04-29T09:16:24.901Z,98506.41
2023-04-29T09:19:10.252Z,98510.31
2023-04-29T09:21:58.250Z,98523.44
2023-04-29T09:24:48.097Z,98525.00
2023-04-29T09:27:35.107Z,98522.22
2023-04-29T09:30:21.367Z,98529.00
2023-04-29T09:33:09.275Z,98531.91
2023-04-29T09:35:55.375Z,98542.16
2023-04-29T09:38:56.150Z,98529.44
2023-04-29T09:41:42.626Z,98537.34
2023-04-29T09:44:36.010Z,98544.94
2023-04-29T09:47:31.420Z,98548.16
2023-04-29T09:50:19.588Z,98562.06
2023-04-29T09:53:08.913Z,98558.94
2023-04-29T09:55:54.215Z,98562.50
2023-04-29T09:58:40.241Z,98566.50
2023-04-29T10:01:27.619Z,98565.75
2023-04-29T10:04:15.601Z,98568.19
2023-04-29T10:07:02.672Z,98564.59
2023-04-29T10:09:48.832Z,98572.50
2023-04-29T10:12:38.864Z,98567.84
2023-04-29T10:15:40.105Z,98568.63
2023-04-29T10:18:49.320Z,98572.16
2023-04-29T10:21:35.048Z,98581.28
2023-04-29T10:24:22.575Z,98581.28
2023-04-29T10:27:12.367Z,98581.28
2023-04-29T10:30:00.885Z,98575.72
2023-04-29T10:32:51.505Z,98581.75
2023-04-29T10:35:38.019Z,98582.97
2023-04-29T10:38:29.579Z,98584.53
2023-04-29T10:41:20.946Z,98582.09
2023-04-29T10:44:06.245Z,98588.00
2023-04-29T10:47:21.592Z,98586.31
2023-04-29T10:50:07.624Z,98585.41
2023-04-29T10:52:53.027Z,98585.31
2023-04-29T10:55:39.026Z,98587.19
2023-04-29T10:58:37.810Z,98588.19
2023-04-29T11:01:41.600Z,98581.72
2023-04-29T11:04:27.529Z,98593.56
2023-04-29T11:07:28.204Z,98597.13
2023-04-29T11:10:14.005Z,98600.69
2023-04-29T11:13:25.077Z,98599.47
2023-04-29T11:16:11.586Z,98597.03
2023-04-29T11:19:11.024Z,98602.59
2023-04-29T11:22:30.164Z,98612.03
2023-04-29T11:25:16.039Z,98615.25
2023-04-29T11:28:02.187Z,98612.13
2023-04-29T11:30:50.308Z,98617.72
2023-04-29T11:33:35.954Z,98607.81
2023-04-29T11:36:21.429Z,98618.94
2023-04-29T11:39:08.179Z,98625.38
2023-04-29T11:42:03.884Z,98624.19
2023-04-29T11:44:53.433Z,98632.84
2023-04-29T11:47:45.081Z,98635.63
2023-04-29T11:50:32.794Z,98644.31
2023-04-29T11:53:25.221Z,98640.63
2023-04-29T11:56:11.696Z,98645.00
2023-04-29T11:58:58.811Z,98650.91
2023-04-29T12:01:44.477Z,98639.31
2023-04-29T12:04:30.072Z,98645.97
2023-04-29T12:07:16.959Z,98643.88
2023-04-29T12:10:02.259Z,98655.34
2023-04-29T12:12:48.418Z,98659.78
2023-04-29T12:15:33.934Z,98658.88
2023-04-29T12:18:20.040Z,98660.13
2023-04-29T12:21:06.696Z,98672.28
2023-04-29T12:23:52.645Z,98674.59
2023-04-29T12:26:40.338Z,98673.25
2023-04-29T12:29:26.669Z,98670.47
2023-04-29T12:32:22.138Z,98692.28
2023-04-29T12:35:16.862Z,98689.50
2023-04-29T12:38:02.835Z,98692.28
2023-04-29T12:40:49.591Z,98703.44
2023-04-29T12:43:36.488Z,98700.66
2023-04-29T12:46:23.690Z,98709.00
2023-04-29T12:49:10.129Z,98711.44
2023-04-29T12:51:55.440Z,98718.25
2023-04-29T12:54:43.976Z,98722.25
2023-04-29T12:57:30.517Z,98723.16
2023-04-29T13:00:16.836Z,98725.94
2023-04-29T13:03:02.494Z,98732.38
2023-04-29T13:05:51.496Z,98730.06
2023-04-29T13:08:37.901Z,98728.47
2023-04-29T13:11:23.259Z,98733.38
2023-04-29T13:14:08.990Z,98742.19
2023-04-29T13:16:54.622Z,98737.59
2023-04-29T13:19:51.072Z,98752.31
2023-04-29T13:22:37.488Z,98746.41
2023-04-29T13:25:23.154Z,98743.28
2023-04-29T13:28:08.508Z,98740.06
2023-04-29T13:30:54.427Z,98747.28
2023-04-29T13:33:40.468Z,98747.28
2023-04-29T13:36:28.346Z,98760.75
2023-04-29T13:39:14.948Z,98755.97
2023-04-29T13:42:00.536Z,98759.88
2023-04-29T13:45:00.015Z,98751.53
2023-04-29T13:48:06.783Z,98766.22
2023-04-29T13:51:27.080Z,98769.78
2023-04-29T13:54:48.176Z,98770.13
2023-04-29T13:57:55.453Z,98773.66
2023-04-29T14:00:31.639Z,98778.94
2023-04-29T14:03:18.664Z,98775.69
2023-04-29T14:06:04.122Z,98778.94
2023-04-29T14:08:50.014Z,98778.59
2023-04-29T14:11:36.910Z,98780.13
2023-04-29T14:14:22.592Z,98793.16
2023-04-29T14:17:07.749Z,98800.63
2023-04-29T14:19:53.458Z,98800.97
2023-04-29T14:22:40.141Z,98808.09
2023-04-29T14:25:26.745Z,98800.84
2023-04-29T14:28:13.935Z,98802.09
2023-04-29T14:30:59.371Z,98809.66
2023-04-29T14:33:44.716Z,98800.06
2023-04-29T14:36:32.651Z,98806.75
2023-04-29T14:39:18.467Z,98814.25
2023-04-29T14:42:04.358Z,98812.22
2023-04-29T14:44:49.644Z,98815.78
2023-04-29T14:47:34.998Z,98820.47
2023-04-29T14:50:20.643Z,98826.03
2023-04-29T14:53:08.769Z,98823.59
2023-04-29T14:55:54.347Z,98823.59
2023-04-29T14:58:39.740Z,98829.84
2023-04-29T15:01:26.155Z,98832.63
2023-04-29T15:04:12.857Z,98838.97
2023-04-29T15:07:01.018Z,98837.75
2023-04-29T15:09:47.662Z,98840.09
2023-04-29T15:12:34.006Z,98849.22
2023-04-29T15:15:19.397Z,98836.84
2023-04-29T15:18:06.328Z,98836.84
2023-04-29T15:20:51.901Z,98839.22
2023-04-29T15:23:37.631Z,98831.63
2023-04-29T15:26:23.161Z,98837.19
2023-04-29T15:29:08.698Z,98836.84
2023-04-29T15:31:54.120Z,98833.72
2023-04-29T15:34:39.358Z,98840.88
2023-04-29T15:37:26.304Z,98834.53
2023-04-29T15:40:12.471Z,98840.53
2023-04-29T15:42:57.935Z,98843.31
2023-04-29T15:45:43.377Z,98842.09
2023-04-29T15:48:28.742Z,98850.91
2023-04-29T15:51:15.168Z,98848.13
2023-04-29T15:54:00.584Z,98850.91
2023-04-29T15:56:45.708Z,98853.69
2023-04-29T15:59:31.733Z,98856.13
2023-04-29T16:02:17.344Z,98856.91
2023-04-29T16:05:03.586Z,98859.34
2023-04-29T16:07:49.105Z,98862.13
2023-04-29T16:10:34.394Z,98870.06
2023-04-29T16:13:19.921Z,98877.59
2023-04-29T16:16:06.790Z,98874.50
2023-04-29T16:18:52.065Z,98881.28
2023-04-29T16:21:37.388Z,98879.28
2023-04-29T16:24:22.920Z,98879.28
2023-04-29T16:27:08.581Z,98885.31
2023-04-29T16:29:55.670Z,98884.84
2023-04-29T16:32:43.183Z,98886.84
2023-04-29T16:35:30.963Z,98886.50
2023-04-29T16:38:16.624Z,98893.66
2023-04-29T16:41:02.519Z,98899.22
2023-04-29T16:43:47.897Z,98899.22
2023-04-29T16:46:33.413Z,98893.31
2023-04-29T16:49:26.569Z,98900.09
2023-04-29T16:52:12.756Z,98905.66
2023-04-29T16:55:00.318Z,98904.53
2023-04-29T16:57:45.776Z,98909.66
2023-04-29T17:00:31.716Z,98909.66
2023-04-29T17:03:17.251Z,98912.88
2023-04-29T17:06:04.198Z,98915.31
2023-04-29T17:08:51.534Z,98920.56
2023-04-29T17:11:37.163Z,98926.91
2023-04-29T17:14:23.055Z,98934.47
2023-04-29T17:17:12.002Z,98931.69
2023-04-29T17:19:57.696Z,98933.25
2023-04-29T17:22:42.922Z,98932.50
2023-04-29T17:25:28.222Z,98937.72
2023-04-29T17:28:13.848Z,98946.06
2023-04-29T17:31:01.244Z,98947.63
2023-04-29T17:33:55.262Z,98955.97
2023-04-29T17:36:41.225Z,98949.19
2023-04-29T17:39:26.445Z,98959.88
2023-04-29T17:42:12.200Z,98964.22
2023-04-29T17:44:57.820Z,98968.56
2023-04-29T17:47:44.052Z,98970.16
2023-04-29T17:50:31.708Z,98978.03
2023-04-29T17:53:17.964Z,98972.59
2023-04-29T17:56:03.644Z,98980.13
2023-04-29T17:58:49.268Z,98971.78
2023-04-29T18:01:35.833Z,98977.69
2023-04-29T18:04:21.531Z,98982.91
2023-04-29T18:07:07.124Z,98985.28
2023-04-29T18:09:53.270Z,98984.16
2023-04-29T18:12:39.085Z,98986.16
2023-04-29T18:15:24.513Z,98989.72
2023-04-29T18:18:10.597Z,98989.38
2023-04-29T18:20:59.290Z,98993.38
2023-04-29T18:23:45.133Z,99002.84
2023-04-29T18:26:31.216Z,99000.84
2023-04-29T18:29:17.037Z,99000.50
2023-04-29T18:32:02.410Z,99002.09
2023-04-29T18:34:48.406Z,98999.72
2023-04-29T18:37:33.913Z,99001.75
2023-04-29T18:40:20.661Z,99011.63
2023-04-29T18:43:06.267Z,99014.06
2023-04-29T18:45:52.129Z,99016.50
2023-04-29T18:48:39.019Z,99014.50
2023-04-29T18:51:25.121Z,99019.66
2023-04-29T18:54:11.226Z,99025.22
2023-04-29T18:56:56.717Z,99032.78
2023-04-29T18:59:42.637Z,99036.00
2023-04-29T19:02:28.600Z,99041.22
2023-04-29T19:05:14.413Z,99043.56
2023-04-29T19:07:59.969Z,99055.94
2023-04-29T19:10:46.595Z,99052.34
2023-04-29T19:13:32.240Z,99063.47
2023-04-29T19:16:18.119Z,99058.72
2023-04-29T19:19:04.321Z,99063.47
2023-04-29T19:21:49.879Z,99068.63
2023-04-29T19:24:37.110Z,99070.28
2023-04-29T19:27:23.339Z,99073.06
2023-04-29T19:30:09.423Z,99076.63
2023-04-29T19:32:55.686Z,99073.06
2023-04-29T19:35:41.404Z,99073.84
2023-04-29T19:38:26.958Z,99075.44
2023-04-29T19:41:12.795Z,99084.19
2023-04-29T19:43:58.099Z,99091.78
2023-04-29T19:46:43.634Z,99091.31
2023-04-29T19:49:29.262Z,99086.22
2023-04-29T19:52:14.680Z,99088.19
2023-04-29T19:55:00.099Z,99088.19
2023-04-29T19:57:45.599Z,99090.13
2023-04-29T20:00:31.499Z,99089.00
2023-04-29T20:03:17.144Z,99087.41
2023-04-29T20:06:02.525Z,99096.22
2023-04-29T20:08:48.405Z,99092.19
2023-04-29T20:11:33.713Z,99092.19
2023-04-29T20:14:19.482Z,99089.00
2023-04-29T20:17:05.014Z,99097.75
2023-04-29T20:19:50.535Z,99095.88
2023-04-29T20:22:36.660Z,99097.75
2023-04-29T20:25:22.011Z,99100.19
2023-04-29T20:28:08.992Z,99095.06
2023-04-29T20:30:54.315Z,99100.19
2023-04-29T20:33:39.423Z,99101.84
2023-04-29T20:36:24.711Z,99099.50
2023-04-29T20:39:10.872Z,99094.28
2023-04-29T20:41:57.199Z,99105.84
2023-04-29T20:44:43.250Z,99099.16
2023-04-29T20:47:29.022Z,99106.72
2023-04-29T20:50:14.392Z,99101.59
2023-04-29T20:53:00.631Z,99102.03
2023-04-29T20:55:46.660Z,99098.13
2023-04-29T20:58:32.305Z,99098.91
2023-04-29T21:01:19.504Z,99103.22
2023-04-29T21:04:06.085Z,99110.03
2023-04-29T21:06:52.723Z,99099.28
2023-04-29T21:09:38.605Z,99102.06
2023-04-29T21:12:24.873Z,99105.25
2023-04-29T21:15:11.348Z,99094.53
2023-04-29T21:17:56.902Z,99105.25
2023-04-29T21:20:42.347Z,99118.78
2023-04-29T21:23:27.856Z,99116.00
2023-04-29T21:26:15.001Z,99116.41
2023-04-29T21:29:01.169Z,99118.78
2023-04-29T21:31:47.205Z,99111.66
2023-04-29T21:34:32.792Z,99117.22
2023-04-29T21:37:18.402Z,99114.81
2023-04-29T21:40:04.864Z,99123.94
2023-04-29T21:42:51.097Z,99125.94
2023-04-29T21:45:36.575Z,99125.94
2023-04-29T21:48:21.982Z,99122.38
2023-04-29T21:51:08.794Z,99129.91
2023-04-29T21:53:54.541Z,99123.56
2023-04-29T21:56:39.756Z,99129.13
2023-04-29T21:59:25.509Z,99129.50
2023-04-29T22:02:23.000Z,99132.19
2023-04-29T22:05:08.837Z,99129.75
2023-04-29T22:07:54.881Z,99126.63
2023-04-29T22:10:41.591Z,99133.78
2023-04-29T22:13:26.859Z,99126.63
2023-04-29T22:16:12.353Z,99134.56
2023-04-29T22:18:58.039Z,99140.91
2023-04-29T22:21:43.384Z,99142.13
2023-04-29T22:24:28.682Z,99138.56
2023-04-29T22:27:13.934Z,99144.19
2023-04-29T22:29:59.436Z,99145.75
2023-04-29T22:32:44.876Z,99141.84
2023-04-29T22:35:30.307Z,99143.03
2023-04-29T22:38:16.328Z,99148.22
2023-04-29T22:41:01.841Z,99141.84
2023-04-29T22:43:47.217Z,99149.38
2023-04-29T22:46:33.532Z,99146.59
2023-04-29T22:49:19.098Z,99154.56
2023-04-29T22:52:04.749Z,99155.34
2023-04-29T22:54:50.629Z,99159.34
2023-04-29T22:57:36.133Z,99161.31
2023-04-29T23:00:22.144Z,99157.34
2023-04-29T23:03:07.386Z,99157.72
2023-04-29T23:05:57.825Z,99162.94
2023-04-29T23:08:44.663Z,99158.25
2023-04-29T23:11:31.220Z,99158.69
2023-04-29T23:14:16.907Z,99164.66
2023-04-29T23:17:02.218Z,99159.97
2023-04-29T23:19:47.672Z,99161.19
2023-04-29T23:22:33.065Z,99162.03
2023-04-29T23:25:18.374Z,99165.28
2023-04-29T23:28:03.716Z,99159.00
2023-04-29T23:30:49.258Z,99166.22
2023-04-29T23:33:34.470Z,99167.41
2023-04-29T23:36:19.610Z,99173.41
2023-04-29T23:39:05.386Z,99167.94
2023-04-29T23:41:51.465Z,99160.78
2023-04-29T23:44:39.255Z,99162.00
2023-04-29T23:47:24.834Z,99166.88
2023-04-29T23:50:10.465Z,99166.09
2023-04-29T23:52:56.133Z,99157.38
2023-04-29T23:55:41.643Z,99161.81
2023-04-29T23:58:27.963Z,99158.69
